• Join FlightAware (Why Join?)
  • Login
  • US Flag 
04:18AM EDT


 

Airport Tracker/Info


-or-


 

Live Flight TrackerFlight Track Log ✈ N465TP ✈ 30-Jul-2014 ✈ KCOD - 11WY

Flight Track Log - Related Links

Times and Time Zones

All times are in EDT time to prevent confusion due to time zone crossing. See the N465TP flight status page for this flight to view local times or setup timezone preferences in your user account.

Time Position Orientation Groundspeed Altitude Reporting Facility
EDT Latitude Longitude Course Direction KTS MPH feet Rate Location/Type
05:18PM 44.5414 -108.9033 78° East 148 170 7,800  Level Salt Lake Center
05:19PM 44.5494 -108.8431 79° East 152 175 9,200 1,200 Climbing Salt Lake Center
05:20PM 44.5558 -108.7808 82° East 154 177 10,400 1,200 Climbing Salt Lake Center
05:21PM 44.5639 -108.7158 80° East 162 186 11,700 1,320 Climbing Salt Lake Center
05:22PM 44.5728 -108.6408 81° East 163 188 13,200 1,380 Climbing Salt Lake Center
05:23PM 44.5541 -108.6071 78° East  Level FlightAware Approximate
05:23PM 44.5808 -108.5769 80° East 163 188 14,600  Level Salt Lake Center
05:24PM 44.5883 -108.5114 81° East 165 190 15,800 1,140 Climbing Salt Lake Center
05:25PM 44.5958 -108.4456 81° East 166 191 17,000 1,020 Climbing Salt Lake Center
05:26PM 44.6039 -108.3747 81° East 177 204 18,000 960 Climbing Salt Lake Center
05:27PM 44.6117 -108.3042 81° East 179 206 19,100 1,140 Climbing Salt Lake Center
05:28PM 44.6219 -108.2158 81° East 186 214 20,400 1,140 Climbing Salt Lake Center
05:29PM 44.6306 -108.1400 81° East 194 223 21,500 1,020 Climbing Salt Lake Center
05:30PM 44.6381 -108.0622 82° East 197 227 22,600 720 Climbing Salt Lake Center
05:31PM 44.6469 -107.9783 82° East 213 245 23,000 180 Climbing Salt Lake Center
05:32PM 44.6575 -107.8811 81° East 248 285 23,000  Level Salt Lake Center
05:33PM 44.6728 -107.7606 80° East 262 302 23,000  Level Salt Lake Center
05:34PM 44.6836 -107.6572 82° East 265 305 23,000  Level Salt Lake Center
05:35PM 44.6950 -107.5547 81° East 266 306 23,000 -60 Level Salt Lake Center
05:36PM 44.7064 -107.4536 81° East 266 306 22,900  Descending Salt Lake Center
05:38PM 44.7242 -107.2886 81° East 267 307 23,000  Climbing Denver Center
05:38PM 44.7314 -107.2256 81° East 267 307 23,000  Level Salt Lake Center
05:39PM 44.7422 -107.1219 82° East 268 308 23,000  Level Salt Lake Center
05:40PM 44.7536 -107.0183 81° East 268 308 23,000  Level Salt Lake Center
05:41PM 44.7644 -106.9133 82° East 268 308 23,000  Level Salt Lake Center
05:42PM 44.7756 -106.8097 81° East 269 310 23,000  Level Salt Lake Center
05:44PM 44.7869 -106.6886 82° East 266 306 23,000  Level Salt Lake Center
05:45PM 44.7986 -106.5839 81° East 266 306 23,000 -60 Level Salt Lake Center
05:46PM 44.8092 -106.4789 82° East 271 312 22,900  Descending Salt Lake Center
05:47PM 44.8192 -106.3744 82° East 271 312 23,000  Climbing Salt Lake Center
05:48PM 44.8297 -106.2711 82° East 271 312 23,000  Level Salt Lake Center
05:49PM 44.8408 -106.1656 82° East 271 312 23,000  Level Salt Lake Center
05:49PM 44.8447 -106.1053 85° East 270 311 23,000  Level Denver Center
05:50PM 44.8544 -106.0003 83° East 269 310 23,000 -300 Level Denver Center
05:51PM 44.8639 -105.8950 83° East 269 310 22,500 -600 Descending Denver Center
05:52PM 44.8719 -105.8292 80° East 273 314 22,100 -960 Descending Salt Lake Center
05:53PM 44.8811 -105.7269 83° East 270 311 21,100 -1,260 Descending Salt Lake Center
05:54PM 44.8903 -105.6275 83° East 263 303 19,600 -1,740 Descending Salt Lake Center
05:55PM 44.9003 -105.5153 83° East 246 283 17,600 -1,860 Descending Salt Lake Center
05:56PM 44.9086 -105.4297 82° East 226 260 15,800 -1,800 Descending Salt Lake Center